Time;durP1;ratioP1;P1;durP2;ratioP2;P2;SDS_P1;SDS_P2;PMS_P1;PMS_P2;Temp;Humidity;BMP_temperature;BMP_pressure;BME280_temperature;BME280_humidity;BME280_pressure;Samples;Min_cycle;Max_cycle;Signal;HPM_P1;HPM_P2
2024/03/15 00:02:13;;;;;;;7.50;4.28;;;10.30;1.00;;;;;;7381289;19;20085;-70
2024/03/15 00:04:44;;;;;;;5.72;4.25;;;10.30;1.00;;;;;;7380267;19;20027;-72
2024/03/15 00:07:14;;;;;;;6.07;4.20;;;10.30;1.00;;;;;;7380747;19;20014;-70
2024/03/15 00:09:44;;;;;;;5.95;4.50;;;10.20;1.00;;;;;;7379700;19;20765;-70
2024/03/15 00:12:14;;;;;;;7.93;4.15;;;10.20;1.00;;;;;;7380790;19;20018;-71
2024/03/15 00:14:47;;;;;;;5.68;4.15;;;10.20;1.00;;;;;;7379720;19;20028;-71
2024/03/15 00:17:17;;;;;;;5.07;3.92;;;10.10;1.00;;;;;;7378255;19;20003;-71
2024/03/15 00:19:47;;;;;;;4.43;4.00;;;10.10;1.00;;;;;;7379441;19;20414;-72
2024/03/15 00:22:17;;;;;;;6.25;3.58;;;10.10;1.00;;;;;;7378148;19;20006;-70
2024/03/15 00:24:47;;;;;;;4.22;3.28;;;10.10;1.00;;;;;;7379408;19;20359;-71
2024/03/15 00:27:17;;;;;;;7.22;3.42;;;10.10;1.00;;;;;;7378887;19;20016;-70
2024/03/15 00:29:50;;;;;;;5.10;3.67;;;10.20;1.00;;;;;;7379220;19;20014;-69
2024/03/15 00:32:20;;;;;;;4.50;3.53;;;10.10;1.00;;;;;;7375479;19;20011;-70
2024/03/15 00:34:51;;;;;;;6.10;3.90;;;10.10;1.00;;;;;;7377988;19;20365;-69
2024/03/15 00:37:21;;;;;;;4.00;3.42;;;10.10;1.00;;;;;;7376571;19;20007;-71
2024/03/15 00:39:51;;;;;;;7.32;3.90;;;10.10;1.00;;;;;;7377708;19;20015;-72
2024/03/15 00:42:21;;;;;;;4.80;3.83;;;10.00;1.00;;;;;;7377049;19;20043;-71
2024/03/15 00:44:54;;;;;;;7.63;3.80;;;10.00;1.00;;;;;;7378641;19;20018;-71
2024/03/15 00:47:24;;;;;;;5.90;4.10;;;10.00;1.00;;;;;;7376937;19;20038;-71
2024/03/15 00:49:54;;;;;;;5.13;3.90;;;10.00;1.00;;;;;;7376143;19;20011;-71
2024/03/15 00:52:24;;;;;;;4.80;3.83;;;9.90;1.00;;;;;;7376456;19;20135;-71
2024/03/15 00:54:55;;;;;;;4.72;3.60;;;9.80;1.00;;;;;;7376734;19;20014;-70
2024/03/15 00:57:25;;;;;;;9.07;4.20;;;9.70;1.00;;;;;;7376621;19;20012;-70
2024/03/15 00:59:58;;;;;;;5.70;3.70;;;9.70;1.00;;;;;;7374684;19;20031;-71
2024/03/15 01:02:28;;;;;;;4.95;3.45;;;9.60;1.00;;;;;;7376516;19;20011;-71
2024/03/15 01:05:01;;;;;;;5.10;3.80;;;9.50;1.00;;;;;;7378088;19;20466;-71
2024/03/15 01:07:31;;;;;;;9.15;4.57;;;9.50;1.00;;;;;;7377120;19;20023;-71
2024/03/15 01:10:02;;;;;;;5.85;4.18;;;9.40;1.00;;;;;;7376926;19;20032;-71
2024/03/15 01:12:34;;;;;;;9.35;4.50;;;9.30;1.00;;;;;;7377203;19;20017;-71
2024/03/15 01:15:07;;;;;;;6.22;4.30;;;9.30;1.00;;;;;;7375940;19;20015;-71
2024/03/15 01:17:37;;;;;;;6.30;4.40;;;9.30;1.00;;;;;;7376215;19;20018;-70
2024/03/15 01:20:10;;;;;;;8.20;4.30;;;9.20;1.00;;;;;;7376691;19;20022;-70
2024/03/15 01:22:41;;;;;;;6.72;4.35;;;9.20;1.00;;;;;;7376356;19;20018;-70
2024/03/15 01:25:11;;;;;;;6.60;4.32;;;9.20;1.00;;;;;;7376565;19;22702;-70
2024/03/15 01:27:41;;;;;;;5.75;3.95;;;9.20;1.00;;;;;;7377067;19;25302;-70
2024/03/15 01:30:14;;;;;;;6.78;4.30;;;9.20;1.00;;;;;;7377262;19;21131;-70
2024/03/15 01:32:44;;;;;;;5.68;4.25;;;9.30;1.00;;;;;;7376512;19;20026;-71
2024/03/15 01:35:16;;;;;;;6.05;3.90;;;9.20;1.00;;;;;;7375718;19;20031;-70
2024/03/15 01:37:46;;;;;;;4.70;3.78;;;9.30;1.00;;;;;;7376908;19;20021;-70
2024/03/15 01:40:17;;;;;;;4.30;3.85;;;9.30;1.00;;;;;;7374527;19;20079;-70
2024/03/15 01:42:47;;;;;;;5.90;4.13;;;9.30;1.00;;;;;;7375693;19;20015;-71
2024/03/15 01:45:20;;;;;;;5.68;4.13;;;9.40;1.00;;;;;;7375051;19;20448;-71
2024/03/15 01:47:50;;;;;;;6.35;4.13;;;9.40;1.00;;;;;;7376755;19;20056;-71
2024/03/15 01:50:22;;;;;;;4.50;3.92;;;9.40;1.00;;;;;;7376564;19;20010;-70
2024/03/15 01:52:54;;;;;;;5.28;4.22;;;9.40;1.00;;;;;;7376612;19;20031;-70
2024/03/15 01:55:24;;;;;;;5.05;3.95;;;9.40;1.00;;;;;;7373194;19;20015;-70
2024/03/15 01:57:54;;;;;;;6.25;4.28;;;9.60;1.00;;;;;;7353336;19;20006;-71
2024/03/15 02:00:27;;;;;;;8.57;3.88;;;9.70;1.00;;;;;;7374916;19;20014;-70
2024/03/15 02:02:57;;;;;;;5.95;3.60;;;9.60;1.00;;;;;;7375666;19;20963;-70
2024/03/15 02:05:27;;;;;;;4.00;3.60;;;9.50;1.00;;;;;;7374672;19;20014;-70
2024/03/15 02:07:57;;;;;;;3.95;3.40;;;9.50;1.00;;;;;;7375671;19;20030;-70
2024/03/15 02:10:27;;;;;;;5.05;3.30;;;9.60;1.00;;;;;;7376145;19;20493;-70
2024/03/15 02:12:57;;;;;;;4.60;3.15;;;9.60;1.00;;;;;;7381944;19;20019;-70
2024/03/15 02:15:30;;;;;;;6.13;3.22;;;9.50;1.00;;;;;;7380150;19;20032;-70
2024/03/15 02:18:00;;;;;;;4.07;3.13;;;9.50;1.00;;;;;;7381566;19;20039;-70
2024/03/15 02:20:33;;;;;;;6.03;3.10;;;9.50;1.00;;;;;;7381011;19;20006;-70
2024/03/15 02:23:03;;;;;;;5.68;3.55;;;9.60;1.00;;;;;;7382650;19;20014;-70
2024/03/15 02:25:33;;;;;;;6.45;3.28;;;9.60;1.00;;;;;;7381386;19;20014;-71
2024/03/15 02:28:06;;;;;;;5.80;3.58;;;9.70;1.00;;;;;;7382097;19;20039;-71
2024/03/15 02:30:36;;;;;;;4.28;3.15;;;9.60;1.00;;;;;;7380004;19;20082;-71
2024/03/15 02:33:06;;;;;;;4.63;3.28;;;9.70;1.00;;;;;;7382100;19;20018;-70
2024/03/15 02:35:40;;;;;;;3.72;2.90;;;9.70;1.00;;;;;;7381192;19;20014;-70
2024/03/15 02:38:10;;;;;;;4.47;3.22;;;9.70;1.00;;;;;;7381222;19;20471;-71
2024/03/15 02:40:40;;;;;;;5.85;3.63;;;9.80;1.00;;;;;;7379979;19;20113;-71
2024/03/15 02:43:10;;;;;;;4.75;3.20;;;9.80;1.00;;;;;;7381289;19;20014;-70
2024/03/15 02:45:40;;;;;;;5.25;3.20;;;9.70;1.00;;;;;;7380406;19;20244;-71
2024/03/15 02:48:11;;;;;;;6.18;3.13;;;9.80;1.00;;;;;;7381200;19;20086;-71
2024/03/15 02:50:44;;;;;;;3.67;3.10;;;9.80;1.00;;;;;;7380763;19;20014;-71
2024/03/15 02:53:18;;;;;;;3.97;3.05;;;9.80;1.00;;;;;;7380991;19;20022;-70
2024/03/15 02:55:49;;;;;;;4.15;3.00;;;9.90;1.00;;;;;;7379386;19;20457;-71
2024/03/15 02:58:21;;;;;;;4.88;2.92;;;9.90;1.00;;;;;;7379257;19;20074;-70
2024/03/15 03:00:51;;;;;;;3.67;2.70;;;9.90;1.00;;;;;;7382498;19;20015;-70
2024/03/15 03:03:21;;;;;;;4.32;2.92;;;10.00;1.00;;;;;;7382413;19;20011;-71
2024/03/15 03:05:54;;;;;;;3.60;2.72;;;10.00;1.00;;;;;;7381510;19;20068;-71
2024/03/15 03:08:24;;;;;;;6.13;3.22;;;9.90;1.00;;;;;;7376485;19;20014;-71
2024/03/15 03:10:54;;;;;;;4.28;2.80;;;9.90;1.00;;;;;;7380038;19;20019;-70
2024/03/15 03:13:24;;;;;;;5.07;3.10;;;9.80;1.00;;;;;;7380222;19;20386;-71
2024/03/15 03:15:54;;;;;;;4.18;3.13;;;9.90;1.00;;;;;;7378506;19;20417;-70
2024/03/15 03:18:24;;;;;;;6.95;3.05;;;9.90;1.00;;;;;;7381175;19;20014;-71
2024/03/15 03:20:57;;;;;;;5.07;2.80;;;9.80;1.00;;;;;;7379350;19;20501;-70
2024/03/15 03:23:27;;;;;;;3.60;2.50;;;9.90;1.00;;;;;;7377483;19;20006;-71
2024/03/15 03:25:57;;;;;;;5.03;2.97;;;9.80;1.00;;;;;;7378342;19;20010;-70
2024/03/15 03:28:27;;;;;;;4.50;3.40;;;9.90;1.00;;;;;;7378988;19;20020;-71
2024/03/15 03:30:57;;;;;;;6.38;3.38;;;9.90;1.00;;;;;;7379732;19;20070;-69
2024/03/15 03:33:28;;;;;;;4.63;3.40;;;9.80;1.00;;;;;;7380517;19;20044;-70
2024/03/15 03:36:00;;;;;;;5.90;3.17;;;9.90;1.00;;;;;;7380175;19;20028;-69
2024/03/15 03:38:30;;;;;;;5.25;3.28;;;9.80;1.00;;;;;;7379424;19;20011;-69
2024/03/15 03:41:00;;;;;;;4.95;3.05;;;9.70;1.00;;;;;;7380308;19;20010;-71
2024/03/15 03:43:30;;;;;;;10.32;4.32;;;9.70;1.00;;;;;;7378746;19;20002;-71
2024/03/15 03:46:00;;;;;;;7.75;3.53;;;9.70;1.00;;;;;;7378099;19;20028;-71
2024/03/15 03:48:31;;;;;;;4.47;3.30;;;9.70;1.00;;;;;;7379447;19;20007;-72
2024/03/15 03:51:04;;;;;;;5.47;3.85;;;9.70;1.00;;;;;;7379771;19;20019;-70
2024/03/15 03:53:34;;;;;;;5.78;3.80;;;9.70;1.00;;;;;;7379046;19;20010;-70
2024/03/15 03:56:04;;;;;;;7.65;4.05;;;9.70;1.00;;;;;;7377894;19;20480;-70
2024/03/15 03:58:34;;;;;;;5.22;3.97;;;9.70;1.00;;;;;;7378149;19;20007;-70
2024/03/15 04:01:04;;;;;;;5.57;3.92;;;9.80;1.00;;;;;;7379568;19;20018;-69
2024/03/15 04:03:35;;;;;;;8.85;3.85;;;9.80;1.00;;;;;;7378811;19;20019;-69
2024/03/15 04:06:07;;;;;;;10.25;3.90;;;9.90;1.00;;;;;;7377321;19;20014;-70
2024/03/15 04:08:37;;;;;;;5.25;3.22;;;9.80;1.00;;;;;;7378812;19;20101;-70
2024/03/15 04:11:09;;;;;;;3.80;3.20;;;10.00;1.00;;;;;;7379350;19;20018;-71
2024/03/15 04:13:39;;;;;;;5.40;3.40;;;10.00;1.00;;;;;;7378349;19;20038;-71
2024/03/15 04:16:10;;;;;;;3.55;2.65;;;10.00;1.00;;;;;;7377661;19;20018;-71
2024/03/15 04:18:40;;;;;;;6.05;3.72;;;10.10;1.00;;;;;;7378741;19;20064;-71
2024/03/15 04:21:13;;;;;;;5.28;3.63;;;10.00;1.00;;;;;;7379735;19;20133;-71
2024/03/15 04:23:43;;;;;;;5.03;3.70;;;10.10;1.00;;;;;;7377803;19;20349;-72
2024/03/15 04:26:13;;;;;;;6.28;3.88;;;10.10;1.00;;;;;;7376836;19;20086;-71
2024/03/15 04:28:44;;;;;;;5.85;3.60;;;10.20;1.00;;;;;;7378340;19;20095;-70
2024/03/15 04:31:16;;;;;;;7.32;3.67;;;10.10;1.00;;;;;;7378866;19;20344;-71
2024/03/15 04:33:48;;;;;;;4.57;2.97;;;10.10;1.00;;;;;;7377717;19;20060;-71
2024/03/15 04:36:24;;;;;;;4.47;3.33;;;10.10;1.00;;;;;;7376461;19;20010;-71
2024/03/15 04:38:54;;;;;;;5.22;2.92;;;10.10;1.00;;;;;;7378461;19;20032;-69
2024/03/15 04:41:24;;;;;;;3.92;2.72;;;10.10;1.00;;;;;;7377423;19;20007;-71
2024/03/15 04:43:55;;;;;;;3.33;2.88;;;10.00;1.00;;;;;;7375886;19;20014;-71
2024/03/15 04:46:25;;;;;;;3.70;2.70;;;10.00;1.00;;;;;;7374986;19;20020;-71
2024/03/15 04:48:56;;;;;;;6.28;2.90;;;10.00;1.00;;;;;;7374914;19;20041;-71
2024/03/15 04:51:29;;;;;;;5.00;2.90;;;9.90;1.00;;;;;;7377310;19;20014;-71
2024/03/15 04:53:59;;;;;;;4.90;3.03;;;9.80;1.00;;;;;;7374382;19;20490;-71
2024/03/15 04:56:29;;;;;;;4.78;3.53;;;9.80;1.00;;;;;;7377699;19;20375;-71
2024/03/15 04:58:59;;;;;;;4.53;3.30;;;9.70;1.00;;;;;;7378374;19;20003;-70
2024/03/15 05:01:29;;;;;;;4.05;3.08;;;9.70;1.00;;;;;;7373164;19;20032;-69
2024/03/15 05:03:59;;;;;;;4.25;3.15;;;9.70;1.00;;;;;;7373289;19;20021;-70
2024/03/15 05:06:32;;;;;;;7.03;3.40;;;9.70;1.00;;;;;;7376173;19;20017;-72
2024/03/15 05:09:03;;;;;;;4.38;2.80;;;9.70;1.00;;;;;;7375244;19;20077;-71
2024/03/15 05:11:41;;;;;;;5.20;3.35;;;9.80;1.00;;;;;;7375178;19;20014;-71
2024/03/15 05:14:11;;;;;;;6.95;3.70;;;9.80;1.00;;;;;;7375129;19;20344;-71
2024/03/15 05:16:42;;;;;;;6.20;3.60;;;9.80;1.00;;;;;;7374143;19;20006;-70
2024/03/15 05:19:12;;;;;;;5.22;2.90;;;9.70;1.00;;;;;;7376374;19;20002;-71
2024/03/15 05:21:45;;;;;;;5.40;3.25;;;9.70;1.00;;;;;;7375574;19;20015;-71
2024/03/15 05:24:15;;;;;;;8.57;3.20;;;9.70;1.00;;;;;;7374538;19;20003;-71
2024/03/15 05:26:47;;;;;;;6.00;3.42;;;9.70;1.00;;;;;;7374582;19;20014;-69
2024/03/15 05:29:17;;;;;;;5.25;3.30;;;9.60;1.00;;;;;;7375733;19;20358;-69
2024/03/15 05:31:50;;;;;;;5.22;3.10;;;9.60;1.00;;;;;;7374621;19;20035;-70
2024/03/15 05:34:20;;;;;;;3.13;2.83;;;9.60;1.00;;;;;;7377421;19;20022;-70
2024/03/15 05:36:53;;;;;;;4.65;2.92;;;9.60;1.00;;;;;;7375186;19;20025;-70
2024/03/15 05:39:23;;;;;;;7.97;3.45;;;9.60;1.00;;;;;;7375546;19;20015;-70
2024/03/15 05:41:53;;;;;;;6.00;3.08;;;9.50;1.00;;;;;;7374617;19;20007;-70
2024/03/15 05:44:23;;;;;;;4.30;2.58;;;9.50;1.00;;;;;;7376112;19;20507;-71
2024/03/15 05:46:57;;;;;;;8.25;3.40;;;9.40;1.00;;;;;;7380482;19;20015;-71
2024/03/15 05:49:27;;;;;;;6.65;2.92;;;9.40;1.00;;;;;;7382117;19;20048;-71
2024/03/15 05:52:00;;;;;;;5.40;2.80;;;9.50;1.00;;;;;;7382816;19;20773;-70
2024/03/15 05:54:30;;;;;;;4.38;3.00;;;9.50;1.00;;;;;;7382924;19;20027;-70
2024/03/15 05:57:00;;;;;;;4.68;3.10;;;9.60;1.00;;;;;;7382284;19;20021;-71
2024/03/15 05:59:31;;;;;;;5.40;2.85;;;9.60;1.00;;;;;;7382710;19;20039;-70
2024/03/15 06:02:01;;;;;;;8.57;3.28;;;9.70;1.00;;;;;;7384262;19;20010;-71
2024/03/15 06:04:32;;;;;;;5.15;3.15;;;9.80;1.00;;;;;;7382726;19;20007;-70
2024/03/15 06:07:06;;;;;;;7.22;3.42;;;9.80;1.00;;;;;;7376491;19;20033;-69
2024/03/15 06:09:38;;;;;;;5.20;2.95;;;9.80;1.00;;;;;;7382215;19;20082;-70
2024/03/15 06:12:08;;;;;;;5.88;3.35;;;9.90;1.00;;;;;;7381847;19;20387;-70
2024/03/15 06:14:39;;;;;;;4.75;3.28;;;9.90;1.00;;;;;;7380734;19;20825;-70
2024/03/15 06:17:09;;;;;;;6.18;2.65;;;9.90;1.00;;;;;;7380428;19;20011;-70
2024/03/15 06:19:39;;;;;;;6.18;3.13;;;9.90;1.00;;;;;;7381357;19;20475;-71
2024/03/15 06:22:13;;;;;;;3.92;2.80;;;9.90;1.00;;;;;;7380252;19;20006;-70
2024/03/15 06:24:45;;;;;;;4.60;2.80;;;10.00;1.00;;;;;;7382043;19;20017;-70
2024/03/15 06:27:16;;;;;;;4.65;3.05;;;10.00;1.00;;;;;;7380455;19;20022;-69
2024/03/15 06:29:50;;;;;;;4.63;2.78;;;10.10;1.00;;;;;;7381331;19;20005;-69
2024/03/15 06:32:25;;;;;;;3.38;2.83;;;10.20;1.00;;;;;;7380710;19;22531;-70
2024/03/15 06:34:57;;;;;;;5.28;2.90;;;10.20;1.00;;;;;;7377235;19;20475;-70
2024/03/15 06:37:30;;;;;;;5.22;3.53;;;10.40;1.00;;;;;;7382238;19;20007;-70
2024/03/15 06:40:17;;;;;;;5.30;3.15;;;10.50;1.00;;;;;;7378122;19;20098;-71
2024/03/15 06:43:09;;;;;;;7.22;2.83;;;10.50;1.00;;;;;;7379708;19;20090;-69
2024/03/15 06:45:52;;;;;;;6.03;3.22;;;10.50;1.00;;;;;;7378339;19;20015;-69
2024/03/15 06:48:33;;;;;;;4.60;3.25;;;10.50;1.00;;;;;;7382162;19;20074;-69
2024/03/15 06:53:49;;;;;;;5.13;3.10;;;10.50;1.00;;;;;;6871899;19;2004940;-70
2024/03/15 06:56:20;;;;;;;6.55;3.42;;;10.60;1.00;;;;;;7380298;19;20499;-70
2024/03/15 06:58:50;;;;;;;8.38;3.40;;;10.60;1.00;;;;;;7381787;19;20028;-69
2024/03/15 07:01:20;;;;;;;8.20;3.75;;;10.60;1.00;;;;;;7379898;19;20027;-70
2024/03/15 07:03:50;;;;;;;6.45;3.53;;;10.70;1.00;;;;;;7380030;19;20010;-70
2024/03/15 07:06:20;;;;;;;6.15;3.75;;;10.70;1.00;;;;;;7380170;19;20010;-70
2024/03/15 07:08:54;;;;;;;4.45;3.30;;;10.80;1.00;;;;;;7380570;19;19998;-70
2024/03/15 07:11:32;;;;;;;9.80;3.83;;;10.90;1.00;;;;;;7380611;19;20014;-70
2024/03/15 07:14:08;;;;;;;5.10;3.70;;;10.90;1.00;;;;;;7382508;19;20003;-70
2024/03/15 07:16:38;;;;;;;6.13;4.07;;;11.00;1.00;;;;;;7379347;19;20495;-69
2024/03/15 07:19:08;;;;;;;8.35;3.85;;;11.10;1.00;;;;;;7382748;19;20011;-70
2024/03/15 07:21:38;;;;;;;6.85;4.07;;;11.20;1.00;;;;;;7381945;19;20473;-69
2024/03/15 07:24:09;;;;;;;6.70;4.10;;;11.40;1.00;;;;;;7382872;19;20040;-70
2024/03/15 07:26:39;;;;;;;6.18;4.13;;;11.60;1.00;;;;;;7377700;19;20031;-70
2024/03/15 07:29:09;;;;;;;6.45;4.22;;;11.70;1.00;;;;;;7383036;19;20402;-70
2024/03/15 07:31:39;;;;;;;7.72;4.70;;;11.80;1.00;;;;;;7381926;19;20013;-70
2024/03/15 07:34:10;;;;;;;8.55;4.60;;;11.90;1.00;;;;;;7381774;19;20730;-70
2024/03/15 07:36:41;;;;;;;8.35;4.32;;;12.00;1.00;;;;;;7382090;19;20358;-70
2024/03/15 07:39:14;;;;;;;8.02;4.60;;;12.10;1.00;;;;;;7379727;19;20016;-70
2024/03/15 07:41:45;;;;;;;;;;;12.20;1.00;;;;;;7375409;19;20036;-71
2024/03/15 07:44:15;;;;;;;15.45;4.93;;;12.30;1.00;;;;;;7380492;19;19914;-69
2024/03/15 07:46:46;;;;;;;9.02;4.55;;;12.40;1.00;;;;;;7378406;19;20393;-69
2024/03/15 07:49:17;;;;;;;4.38;3.40;;;12.50;1.00;;;;;;7379343;19;20077;-70
2024/03/15 07:51:48;;;;;;;7.85;4.20;;;12.60;1.00;;;;;;7380063;19;19998;-71
2024/03/15 07:54:22;;;;;;;7.57;3.60;;;12.70;1.00;;;;;;7381043;19;20562;-70
2024/03/15 07:56:54;;;;;;;6.38;3.58;;;12.90;1.00;;;;;;7379473;19;20039;-69
2024/03/15 07:59:24;;;;;;;5.18;3.13;;;13.00;1.00;;;;;;7380271;19;20045;-71
2024/03/15 08:01:55;;;;;;;6.30;3.22;;;13.10;1.00;;;;;;7380451;19;20014;-70
2024/03/15 08:04:25;;;;;;;4.93;2.95;;;13.30;1.00;;;;;;7380256;19;20014;-70
2024/03/15 08:06:56;;;;;;;5.13;3.15;;;13.40;1.00;;;;;;7379766;19;20030;-69
2024/03/15 08:09:28;;;;;;;9.15;3.00;;;13.50;1.00;;;;;;7380647;19;20003;-69
2024/03/15 08:11:59;;;;;;;7.63;2.63;;;13.60;1.00;;;;;;7379187;19;20066;-70
2024/03/15 08:14:32;;;;;;;5.35;3.00;;;13.60;1.00;;;;;;7378709;19;20014;-70
2024/03/15 08:17:04;;;;;;;7.18;3.03;;;13.80;1.00;;;;;;7379297;19;20050;-71
2024/03/15 08:19:34;;;;;;;4.60;2.63;;;14.00;1.00;;;;;;7379305;19;20085;-70
2024/03/15 08:22:04;;;;;;;5.30;2.40;;;14.00;1.00;;;;;;7379907;19;20291;-70
2024/03/15 08:24:39;;;;;;;4.35;2.20;;;14.10;1.00;;;;;;7379885;19;21365;-70
2024/03/15 08:27:09;;;;;;;4.50;2.75;;;14.30;1.00;;;;;;7379183;19;20024;-70
2024/03/15 08:29:40;;;;;;;5.95;2.75;;;14.40;1.00;;;;;;7379354;19;20869;-71
2024/03/15 08:32:11;;;;;;;5.05;2.75;;;14.30;1.00;;;;;;7380713;19;20010;-71
2024/03/15 08:34:42;;;;;;;5.25;3.10;;;14.40;1.00;;;;;;7378178;19;20031;-70
2024/03/15 08:37:12;;;;;;;7.45;2.90;;;14.50;1.00;;;;;;7378856;19;20007;-69
2024/03/15 08:39:46;;;;;;;6.90;2.72;;;14.60;1.00;;;;;;7379609;19;20022;-74
2024/03/15 08:42:16;;;;;;;4.30;2.10;;;14.80;1.00;;;;;;7380525;19;20106;-70
2024/03/15 08:44:46;;;;;;;3.90;2.35;;;14.90;1.00;;;;;;7379639;19;20018;-71
2024/03/15 08:47:18;;;;;;;5.07;2.13;;;15.10;1.00;;;;;;7379493;19;20006;-70
2024/03/15 08:49:51;;;;;;;3.17;1.90;;;15.10;1.00;;;;;;7378034;19;20007;-71
2024/03/15 08:52:21;;;;;;;4.00;1.80;;;15.10;1.00;;;;;;7378413;19;20015;-69
2024/03/15 08:54:54;;;;;;;3.90;2.10;;;15.10;1.00;;;;;;7376235;19;20018;-70
2024/03/15 08:57:25;;;;;;;4.25;2.00;;;15.30;1.00;;;;;;7376180;19;20017;-70
2024/03/15 08:59:56;;;;;;;3.38;1.85;;;15.50;1.00;;;;;;7374195;19;20074;-70
2024/03/15 09:02:26;;;;;;;4.05;2.08;;;15.70;1.00;;;;;;7375991;19;20074;-70
2024/03/15 09:04:56;;;;;;;4.05;1.95;;;15.70;1.00;;;;;;7376726;19;20098;-70
2024/03/15 09:07:26;;;;;;;2.75;1.52;;;15.80;1.00;;;;;;7375393;19;20107;-70
2024/03/15 09:09:59;;;;;;;3.10;1.70;;;15.90;1.00;;;;;;7377547;19;20017;-70
2024/03/15 09:12:29;;;;;;;4.57;1.95;;;16.10;1.00;;;;;;7377244;19;20006;-71
2024/03/15 09:15:00;;;;;;;5.32;2.22;;;16.30;1.00;;;;;;7375881;19;20413;-70
2024/03/15 09:17:31;;;;;;;2.55;1.75;;;16.40;1.00;;;;;;7377154;19;20459;-70
2024/03/15 09:20:12;;;;;;;3.25;1.58;;;16.50;1.00;;;;;;7375000;19;20074;-71
2024/03/15 09:22:42;;;;;;;2.65;2.00;;;16.80;1.00;;;;;;7377360;19;20060;-70
2024/03/15 09:25:23;;;;;;;3.05;1.67;;;17.00;1.00;;;;;;7376596;19;20090;-70
2024/03/15 09:27:53;;;;;;;2.08;1.63;;;17.30;1.00;;;;;;7374573;19;20039;-70
2024/03/15 09:30:29;;;;;;;2.28;1.65;;;17.10;1.00;;;;;;7376866;19;20043;-70
2024/03/15 09:33:00;;;;;;;3.42;1.98;;;17.30;1.00;;;;;;7375641;19;20011;-70
2024/03/15 09:35:31;;;;;;;4.28;1.70;;;17.20;1.00;;;;;;7375085;19;20011;-69
2024/03/15 09:38:01;;;;;;;5.18;1.92;;;16.80;1.00;;;;;;7377020;19;20082;-70
2024/03/15 09:40:35;;;;;;;4.50;1.70;;;17.00;1.00;;;;;;7377107;19;20015;-70
2024/03/15 09:43:05;;;;;;;3.05;1.58;;;17.00;1.00;;;;;;7376542;19;20026;-70
2024/03/15 09:45:35;;;;;;;3.35;1.80;;;16.50;1.00;;;;;;7374520;19;20424;-70
2024/03/15 09:48:12;;;;;;;1.83;1.40;;;16.70;1.00;;;;;;7373875;19;20119;-70
2024/03/15 09:50:44;;;;;;;2.47;1.02;;;16.80;1.00;;;;;;7374303;19;20902;-70
2024/03/15 09:53:16;;;;;;;2.08;1.30;;;16.50;1.00;;;;;;7375827;19;20030;-70
2024/03/15 09:55:52;;;;;;;3.30;1.42;;;16.90;1.00;;;;;;7374129;19;20035;-69
2024/03/15 09:58:23;;;;;;;2.10;1.17;;;16.80;1.00;;;;;;7377960;19;20474;-68
2024/03/15 10:00:53;;;;;;;4.55;1.13;;;17.00;1.00;;;;;;7375999;19;20018;-69
2024/03/15 10:03:23;;;;;;;4.72;0.90;;;16.80;1.00;;;;;;7375724;19;20010;-69
2024/03/15 10:05:54;;;;;;;1.55;0.82;;;16.60;1.00;;;;;;7372827;19;20852;-70
2024/03/15 10:08:26;;;;;;;2.78;0.98;;;16.30;1.00;;;;;;7376054;19;20041;-69
2024/03/15 10:10:59;;;;;;;2.40;1.33;;;16.40;1.00;;;;;;7376482;19;20014;-70
2024/03/15 10:13:30;;;;;;;10.88;1.75;;;16.30;1.00;;;;;;7376431;19;20018;-70
2024/03/15 10:16:04;;;;;;;4.38;1.10;;;16.30;1.00;;;;;;7373363;19;20021;-70
2024/03/15 10:18:36;;;;;;;1.42;0.80;;;16.30;1.00;;;;;;7374212;19;20007;-70
2024/03/15 10:21:07;;;;;;;2.28;1.13;;;16.30;1.00;;;;;;7376397;19;20007;-70
2024/03/15 10:23:37;;;;;;;3.10;1.10;;;16.10;1.00;;;;;;7376080;19;20010;-69
2024/03/15 10:26:11;;;;;;;0.70;0.68;;;15.80;1.00;;;;;;7375561;19;20347;-70
2024/03/15 10:28:41;;;;;;;1.35;0.90;;;15.90;1.00;;;;;;7373500;19;20026;-69
2024/03/15 10:31:13;;;;;;;1.85;0.70;;;15.80;1.00;;;;;;7376470;19;20102;-70
2024/03/15 10:33:43;;;;;;;1.25;0.60;;;15.70;1.00;;;;;;7380223;19;20042;-69
2024/03/15 10:36:13;;;;;;;1.83;0.95;;;15.70;1.00;;;;;;7380261;19;20035;-70
2024/03/15 10:38:43;;;;;;;1.42;0.75;;;15.70;1.00;;;;;;7381248;19;20010;-70
2024/03/15 10:41:16;;;;;;;1.25;0.90;;;15.80;1.00;;;;;;7382766;19;20034;-71
2024/03/15 10:43:48;;;;;;;2.83;0.70;;;15.80;1.00;;;;;;7382038;19;20011;-70
2024/03/15 10:46:19;;;;;;;2.25;0.80;;;15.90;1.00;;;;;;7380516;19;20078;-70
2024/03/15 10:48:49;;;;;;;2.80;0.98;;;15.80;1.00;;;;;;7379960;19;20726;-70
2024/03/15 10:51:20;;;;;;;1.20;0.60;;;15.80;1.00;;;;;;7382482;19;20371;-69
2024/03/15 10:53:53;;;;;;;1.33;0.70;;;15.50;1.00;;;;;;7381822;19;20014;-70
2024/03/15 10:56:26;;;;;;;2.58;0.85;;;15.60;1.00;;;;;;7379717;19;20013;-70
2024/03/15 10:58:56;;;;;;;2.72;0.90;;;15.80;1.00;;;;;;7382003;19;20010;-71
2024/03/15 11:01:26;;;;;;;2.33;1.20;;;15.80;1.00;;;;;;7379545;19;20019;-69
2024/03/15 11:03:56;;;;;;;1.88;0.80;;;15.80;1.00;;;;;;7379157;19;20814;-70
2024/03/15 11:06:41;;;;;;;2.30;0.90;;;15.80;1.00;;;;;;7379019;19;20014;-70
2024/03/15 11:09:15;;;;;;;;;;;16.00;1.00;;;;;;7380063;19;20509;-71
2024/03/15 11:11:57;;;;;;;3.28;0.88;;;16.00;1.00;;;;;;7378793;19;20253;-71
2024/03/15 11:14:27;;;;;;;3.80;0.70;;;15.90;1.00;;;;;;7376901;19;20007;-71
2024/03/15 11:16:58;;;;;;;1.17;0.70;;;16.10;1.00;;;;;;7377438;19;20014;-70
2024/03/15 11:19:28;;;;;;;2.17;1.08;;;16.20;1.00;;;;;;7378708;19;20010;-69
2024/03/15 11:22:05;;;;;;;1.20;0.98;;;16.30;1.00;;;;;;7379131;19;20143;-69
2024/03/15 11:24:42;;;;;;;1.13;0.90;;;16.20;1.00;;;;;;7378321;19;20007;-70
2024/03/15 11:27:18;;;;;;;1.67;1.05;;;16.40;1.00;;;;;;7377002;19;20025;-70
2024/03/15 11:29:55;;;;;;;1.90;1.00;;;16.40;1.00;;;;;;7378677;19;20020;-70
2024/03/15 11:32:26;;;;;;;3.70;1.20;;;16.60;1.00;;;;;;7380935;19;20384;-69
2024/03/15 11:34:58;;;;;;;2.17;1.08;;;16.50;1.00;;;;;;7381455;19;20018;-70
2024/03/15 11:37:25;;;;;;;1.63;0.95;;;17.00;1.00;;;;;;7376914;19;20079;-69
2024/03/15 11:40:02;;;;;;;3.15;0.93;;;17.10;1.00;;;;;;7382408;19;20116;-69
2024/03/15 11:42:35;;;;;;;3.00;0.90;;;17.20;1.00;;;;;;7376078;19;20039;-69
2024/03/15 11:45:06;;;;;;;1.48;1.08;;;17.20;1.00;;;;;;7378704;19;20022;-69
2024/03/15 11:47:36;;;;;;;2.97;1.00;;;16.90;1.00;;;;;;7379274;19;20013;-69
2024/03/15 11:50:15;;;;;;;2.00;1.08;;;17.00;1.00;;;;;;7377716;19;20480;-69
2024/03/15 11:52:46;;;;;;;1.35;0.95;;;17.10;1.00;;;;;;7378520;19;20027;-69
2024/03/15 11:55:17;;;;;;;3.33;1.05;;;17.00;1.00;;;;;;7378257;19;20094;-69
2024/03/15 11:57:50;;;;;;;1.52;1.23;;;17.30;1.00;;;;;;7378164;19;20022;-69
2024/03/15 12:00:24;;;;;;;1.42;1.10;;;17.50;1.00;;;;;;7379288;19;20799;-69
2024/03/15 12:02:56;;;;;;;4.32;1.05;;;17.50;1.00;;;;;;7379419;19;20029;-69
2024/03/15 12:05:26;;;;;;;2.38;1.23;;;17.40;1.00;;;;;;7378225;19;20010;-69
2024/03/15 12:07:57;;;;;;;4.53;1.40;;;17.30;1.00;;;;;;7374808;19;20018;-69
2024/03/15 12:10:27;;;;;;;1.92;1.35;;;17.00;1.00;;;;;;7378566;19;20007;-70
2024/03/15 12:13:00;;;;;;;2.63;1.17;;;17.00;1.00;;;;;;7379203;19;20025;-70
2024/03/15 12:15:31;;;;;;;2.78;1.63;;;16.90;1.00;;;;;;7377692;19;20007;-69
2024/03/15 12:18:02;;;;;;;1.48;1.10;;;17.00;1.00;;;;;;7377009;19;20036;-69
2024/03/15 12:20:32;;;;;;;1.63;1.02;;;17.00;1.00;;;;;;7378616;19;20043;-70
2024/03/15 12:23:02;;;;;;;1.30;1.02;;;17.00;1.00;;;;;;7378538;19;20021;-70
2024/03/15 12:25:33;;;;;;;2.03;1.10;;;17.20;1.00;;;;;;7377575;19;20007;-70
2024/03/15 12:28:08;;;;;;;2.13;1.10;;;17.30;1.00;;;;;;7377886;19;20038;-69
2024/03/15 12:30:40;;;;;;;6.85;1.10;;;17.00;1.00;;;;;;7379030;19;20007;-70
2024/03/15 12:33:11;;;;;;;2.13;1.10;;;17.10;1.00;;;;;;7378614;19;20030;-70
2024/03/15 12:35:41;;;;;;;3.03;1.02;;;17.00;1.00;;;;;;7375955;19;20035;-71
2024/03/15 12:38:18;;;;;;;3.35;1.00;;;17.20;1.00;;;;;;7377988;19;20006;-70
2024/03/15 12:40:48;;;;;;;3.22;1.10;;;17.10;1.00;;;;;;7377239;19;20007;-71
2024/03/15 12:43:21;;;;;;;6.32;1.05;;;17.30;1.00;;;;;;7376375;19;20027;-71
2024/03/15 12:45:52;;;;;;;1.52;0.98;;;17.30;1.00;;;;;;7375063;19;20026;-71
2024/03/15 12:48:22;;;;;;;3.15;1.10;;;17.60;1.00;;;;;;7379054;19;20076;-69
2024/03/15 12:50:52;;;;;;;4.70;1.10;;;17.70;1.00;;;;;;7380495;19;20006;-70
2024/03/15 12:53:22;;;;;;;3.70;1.25;;;17.70;1.00;;;;;;7379712;19;20030;-69
2024/03/15 12:55:52;;;;;;;3.03;1.52;;;17.50;1.00;;;;;;7373702;19;20010;-69
2024/03/15 12:58:26;;;;;;;2.78;1.50;;;17.70;1.00;;;;;;7377469;19;20014;-70
2024/03/15 13:00:56;;;;;;;1.70;1.08;;;17.90;1.00;;;;;;7378533;19;20029;-70
2024/03/15 13:03:26;;;;;;;1.58;1.02;;;17.90;1.00;;;;;;7372169;19;20013;-70
2024/03/15 13:05:56;;;;;;;1.25;0.80;;;17.90;1.00;;;;;;7373786;19;20332;-69
2024/03/15 13:08:26;;;;;;;3.42;0.93;;;17.80;1.00;;;;;;7374962;19;20010;-70
2024/03/15 13:10:56;;;;;;;2.05;1.13;;;18.30;1.00;;;;;;7375474;19;20079;-71
2024/03/15 13:13:29;;;;;;;1.50;1.10;;;18.10;1.00;;;;;;7376112;19;20014;-70
2024/03/15 13:15:59;;;;;;;1.70;1.10;;;18.10;1.00;;;;;;7374799;19;20863;-69
2024/03/15 13:18:30;;;;;;;2.60;1.30;;;17.60;1.00;;;;;;7375391;19;20002;-69
2024/03/15 13:21:01;;;;;;;2.50;1.17;;;17.40;1.00;;;;;;7372980;19;20015;-71
2024/03/15 13:23:31;;;;;;;1.83;1.23;;;17.20;1.00;;;;;;7374291;19;20017;-69
2024/03/15 13:26:02;;;;;;;3.05;1.30;;;16.80;1.00;;;;;;7373600;19;20066;-71